Disclaimer

Please do not use the information listed here in-flight or in-navigation, as they are not provided to us by the airports but are provided by volunteers, so they might be outdated.

Search


Regions


Airport information page

Radio informations:
Automatic Terminal Information Service (ATIS) - 127.425 MHz

Airport informations:
Latitude: 21° 08' 03.00" S
Longitude: 047° 46' 27.08" W
Elevation: 1802 feet - 549 meters
Operating hours: 24 hour operations
Operating agency: Civil government, landing fees and diplomatic clearance may be required
Timezone: UTC-3(-2DT)
Fuel: Jet A1, without icing nhibitor.

100/130 octane gasoline, leaded, MIL-L-5572F (GREEN)

Runway information:
18/36 - 6890 x 115 feet< - >2100 x 35 meters

Recent METARs:
SBRP 211700Z 11008KT 9999 FEW020 BKN025 OVC100 25/20 Q1015
SBRP 211700Z 11008KT 9999 FEW020 BKN025 OVC100 25/20 Q1015
SBRP 211800Z 12007KT 9999 SCT033 BKN045 OVC100 26/21 Q1014

Airport on the map: